Time;durP1;ratioP1;P1;durP2;ratioP2;P2;SDS_P1;SDS_P2;PMS_P1;PMS_P2;Temp;Humidity;BMP_temperature;BMP_pressure;BME280_temperature;BME280_humidity;BME280_pressure;Samples;Min_cycle;Max_cycle;Signal;HPM_P1;HPM_P2
2021/07/27 00:02:12;;;;;;;7.30;4.90;;;;;;;21.60;61.31;97784.56;8386358;28;20202;-66
2021/07/27 00:06:15;;;;;;;7.13;4.60;;;;;;;21.74;60.71;97785.06;8386335;28;20411;-66
2021/07/27 00:10:19;;;;;;;7.60;4.73;;;;;;;21.77;60.69;97785.63;8385977;28;20219;-66
2021/07/27 00:14:22;;;;;;;9.03;4.90;;;;;;;21.82;60.36;97791.31;8386091;28;20388;-66
2021/07/27 00:18:25;;;;;;;6.37;4.43;;;;;;;21.74;60.21;97791.19;8385940;28;20219;-66
2021/07/27 00:22:27;;;;;;;5.83;4.13;;;;;;;21.82;60.01;97801.84;8385905;28;20396;-66
2021/07/27 00:26:32;;;;;;;5.40;4.13;;;;;;;21.79;59.96;97809.19;8385838;28;20449;-66
2021/07/27 00:30:35;;;;;;;8.77;4.80;;;;;;;21.41;61.11;97800.38;8385475;28;20212;-66
2021/07/27 00:34:38;;;;;;;5.87;4.40;;;;;;;21.58;60.29;97802.31;8385151;28;20444;-66
2021/07/27 00:38:41;;;;;;;6.17;4.20;;;;;;;21.55;60.32;97794.69;8384720;28;20381;-66
2021/07/27 00:42:46;;;;;;;6.70;4.33;;;;;;;21.52;60.04;97794.97;8385535;28;20521;-66
2021/07/27 00:46:49;;;;;;;5.03;4.30;;;;;;;21.54;60.10;97790.38;8385155;28;20529;-66
2021/07/27 00:50:52;;;;;;;6.37;4.83;;;;;;;21.46;60.26;97793.72;8384928;28;20227;-66
2021/07/27 00:54:55;;;;;;;7.27;4.77;;;;;;;21.40;60.28;97796.91;8384699;28;20215;-66
2021/07/27 00:58:59;;;;;;;6.80;4.60;;;;;;;21.21;60.68;97795.13;8384811;28;20368;-66
2021/07/27 01:03:02;;;;;;;10.93;5.27;;;;;;;21.19;60.81;97791.78;8384363;28;20222;-66
2021/07/27 01:07:05;;;;;;;5.63;5.07;;;;;;;21.08;61.19;97786.66;8384431;28;20227;-66
2021/07/27 01:11:08;;;;;;;5.53;4.60;;;;;;;21.14;61.03;97786.09;8384457;28;20199;-66
2021/07/27 01:15:13;;;;;;;7.47;5.47;;;;;;;20.96;61.46;97788.59;8384090;28;20204;-66
2021/07/27 01:19:28;;;;;;;8.70;5.67;;;;;;;20.29;63.76;97782.19;8383927;28;20555;-66
2021/07/27 01:41:00;;;;;;;9.87;5.80;;;;;;;20.04;64.51;97786.94;8383546;28;20206;-66
2021/07/27 01:45:15;;;;;;;6.33;5.10;;;;;;;20.23;63.73;97780.94;8383342;28;20227;-66
2021/07/27 01:49:18;;;;;;;8.87;5.27;;;;;;;20.53;62.81;97773.97;8383303;28;20199;-66
2021/07/27 01:53:26;;;;;;;7.27;5.67;;;;;;;20.20;64.24;97788.25;8382321;28;20389;-66
2021/07/27 01:57:31;;;;;;;6.87;5.37;;;;;;;20.14;63.93;97791.41;8383147;28;20211;-66
2021/07/27 02:01:34;;;;;;;7.47;5.70;;;;;;;19.91;65.28;97794.22;8382955;28;20200;-66
2021/07/27 02:05:37;;;;;;;8.30;5.70;;;;;;;20.02;64.81;97798.56;8382720;28;20415;-66
2021/07/27 02:09:42;;;;;;;9.63;6.40;;;;;;;19.98;64.10;97790.13;8382510;28;20230;-66
2021/07/27 02:13:48;;;;;;;7.67;4.90;;;;;;;19.65;65.55;97794.63;8382773;28;20213;-65
2021/07/27 02:17:51;;;;;;;9.47;5.33;;;;;;;19.83;64.82;97801.94;8382925;28;20212;-66
2021/07/27 02:21:54;;;;;;;10.37;5.97;;;;;;;19.54;65.73;97792.06;8382526;28;20204;-66
2021/07/27 02:25:57;;;;;;;9.33;5.17;;;;;;;19.85;64.78;97786.88;8382372;28;20235;-66
2021/07/27 02:30:01;;;;;;;9.73;5.87;;;;;;;19.98;63.81;97787.47;8382405;28;20204;-66
2021/07/27 02:34:04;;;;;;;7.03;5.83;;;;;;;19.85;64.18;97789.50;8382745;28;20235;-66
2021/07/27 02:38:07;;;;;;;7.53;5.17;;;;;;;20.11;63.13;97798.59;8382549;28;20222;-66
2021/07/27 02:42:10;;;;;;;9.93;5.47;;;;;;;20.21;62.60;97803.91;8382391;28;20202;-66
2021/07/27 02:46:14;;;;;;;10.63;5.87;;;;;;;19.63;64.97;97808.81;8382105;28;20233;-66
2021/07/27 02:50:17;;;;;;;7.73;5.60;;;;;;;19.48;65.22;97803.91;8382181;28;20209;-66
2021/07/27 02:54:19;;;;;;;8.17;5.80;;;;;;;19.28;65.74;97800.31;8381793;28;20208;-66
2021/07/27 02:58:32;;;;;;;9.57;5.30;;;;;;;19.57;64.74;97796.22;8382130;28;20234;-66
2021/07/27 03:02:37;;;;;;;8.60;5.23;;;;;;;19.96;63.14;97796.47;8384319;28;20211;-66
2021/07/27 03:06:45;;;;;;;10.40;5.60;;;;;;;19.93;63.28;97802.81;8388285;28;20238;-65
2021/07/27 03:10:48;;;;;;;7.73;4.80;;;;;;;20.00;62.87;97798.69;8387980;28;20226;-65
2021/07/27 03:14:50;;;;;;;11.83;4.93;;;;;;;20.14;62.16;97792.25;8387799;28;20499;-66
2021/07/27 03:18:56;;;;;;;9.07;5.03;;;;;;;20.16;61.96;97792.94;8387833;28;20206;-65
2021/07/27 03:22:59;;;;;;;6.13;5.00;;;;;;;20.14;62.18;97799.31;8387920;28;20208;-66
2021/07/27 03:27:02;;;;;;;9.97;5.47;;;;;;;20.20;61.88;97804.88;8387510;28;20228;-66
2021/07/27 03:31:04;;;;;;;11.77;5.93;;;;;;;20.16;62.00;97807.88;8387411;28;20210;-66
2021/07/27 03:35:09;;;;;;;10.73;6.17;;;;;;;20.12;61.67;97799.44;8387214;28;20395;-65
2021/07/27 03:39:12;;;;;;;10.80;6.20;;;;;;;19.98;62.49;97811.13;8387117;28;20207;-65
2021/07/27 03:43:15;;;;;;;5.83;4.87;;;;;;;19.99;62.38;97811.97;8387096;28;20208;-65
2021/07/27 03:47:17;;;;;;;10.30;5.20;;;;;;;20.03;62.21;97810.72;8386876;28;20231;-65
2021/07/27 03:51:21;;;;;;;7.00;5.10;;;;;;;20.16;61.66;97810.53;8386929;28;20208;-65
2021/07/27 03:55:24;;;;;;;9.70;5.60;;;;;;;20.05;61.46;97812.28;8386564;28;20214;-65
2021/07/27 03:59:27;;;;;;;10.73;5.37;;;;;;;20.24;61.36;97815.97;8386684;28;20215;-65
2021/07/27 04:03:30;;;;;;;9.97;5.40;;;;;;;20.17;61.17;97807.75;8386535;28;20477;-65
2021/07/27 04:07:34;;;;;;;11.00;5.37;;;;;;;20.20;61.58;97804.88;8386168;28;20237;-66
2021/07/27 04:11:37;;;;;;;8.73;5.70;;;;;;;20.17;61.23;97801.69;8386186;28;20268;-66
2021/07/27 04:15:40;;;;;;;7.33;4.80;;;;;;;20.19;61.49;97799.75;8385159;28;20511;-66
2021/07/27 04:19:43;;;;;;;8.63;4.80;;;;;;;20.19;61.19;97807.63;8385964;28;20373;-66
2021/07/27 04:23:47;;;;;;;7.37;5.20;;;;;;;20.22;61.39;97804.72;8385862;28;20203;-66
2021/07/27 04:27:50;;;;;;;11.90;6.20;;;;;;;20.25;60.93;97807.09;8385525;28;20233;-65
2021/07/27 04:31:53;;;;;;;11.70;5.97;;;;;;;19.89;61.82;97815.38;8385565;28;20217;-66
2021/07/27 04:35:56;;;;;;;8.30;5.60;;;;;;;19.66;63.15;97808.56;8385370;28;20238;-66
2021/07/27 04:40:00;;;;;;;9.73;6.27;;;;;;;19.80;62.94;97807.44;8385330;28;20203;-65
2021/07/27 04:44:03;;;;;;;13.80;6.10;;;;;;;19.89;62.73;97804.03;8385108;28;20219;-65
2021/07/27 04:48:06;;;;;;;12.17;6.40;;;;;;;20.09;62.27;97816.31;8385089;28;20231;-66
2021/07/27 04:52:09;;;;;;;11.43;6.37;;;;;;;19.26;65.32;97811.91;8384764;28;20204;-66
2021/07/27 04:56:13;;;;;;;12.40;6.80;;;;;;;19.38;64.76;97810.03;8384378;28;20208;-66
2021/07/27 05:00:25;;;;;;;13.37;6.10;;;;;;;19.32;65.30;97817.50;8357159;28;20191;-66
2021/07/27 05:04:29;;;;;;;13.60;6.20;;;;;;;19.55;64.84;97822.59;8366945;28;20193;-66
2021/07/27 05:08:32;;;;;;;8.80;5.93;;;;;;;19.90;63.50;97817.03;8367317;28;20579;-66
2021/07/27 05:12:37;;;;;;;12.03;6.50;;;;;;;19.84;64.04;97822.00;8366791;28;20200;-66
2021/07/27 05:16:40;;;;;;;6.83;5.70;;;;;;;20.03;63.30;97826.50;8354998;28;20206;-67
2021/07/27 05:20:44;;;;;;;11.57;5.57;;;;;;;20.20;63.20;97825.06;8351018;28;20492;-66
2021/07/27 05:24:47;;;;;;;10.10;5.40;;;;;;;20.45;62.46;97822.00;8350701;28;20487;-66
2021/07/27 05:28:51;;;;;;;7.77;4.87;;;;;;;20.80;62.24;97823.34;8350483;28;20224;-69
2021/07/27 05:32:55;;;;;;;7.20;5.30;;;;;;;20.81;60.68;97822.38;8350714;28;20514;-66
2021/07/27 05:36:58;;;;;;;6.43;4.37;;;;;;;21.03;61.77;97815.19;8350703;28;20426;-66
2021/07/27 05:41:01;;;;;;;8.57;5.53;;;;;;;20.64;61.67;97820.41;8350348;28;20510;-66
2021/07/27 05:45:06;;;;;;;15.73;4.63;;;;;;;20.96;60.72;97807.03;8350357;28;20206;-66
2021/07/27 05:49:10;;;;;;;6.97;4.50;;;;;;;21.23;59.99;97813.41;8350148;28;20197;-66
2021/07/27 05:53:12;;;;;;;8.23;5.10;;;;;;;20.97;60.52;97805.22;8350033;28;20213;-66
2021/07/27 05:57:17;;;;;;;8.37;5.00;;;;;;;21.28;60.23;97814.66;8350275;28;20205;-66
2021/07/27 06:01:22;;;;;;;8.43;4.90;;;;;;;21.52;59.37;97810.78;8349893;28;20206;-66
2021/07/27 06:05:24;;;;;;;7.87;4.80;;;;;;;21.75;58.97;97808.66;8349854;28;20209;-66
2021/07/27 06:09:27;;;;;;;12.43;4.63;;;;;;;21.82;58.28;97804.47;8349915;28;20227;-66
2021/07/27 06:13:30;;;;;;;8.43;4.90;;;;;;;21.99;57.95;97813.44;8349905;28;20527;-66
2021/07/27 06:17:34;;;;;;;6.43;5.00;;;;;;;21.89;57.98;97812.63;8349751;28;20227;-66
2021/07/27 06:21:38;;;;;;;8.70;4.73;;;;;;;22.04;58.79;97823.56;8350127;28;20204;-66
2021/07/27 06:25:41;;;;;;;6.00;4.20;;;;;;;22.35;57.65;97815.41;8349512;28;20554;-66
2021/07/27 06:29:44;;;;;;;7.63;4.60;;;;;;;22.29;58.38;97824.72;8349427;28;20211;-66
2021/07/27 06:33:48;;;;;;;7.57;4.30;;;;;;;22.58;57.03;97821.13;8349324;28;20424;-66
2021/07/27 06:37:52;;;;;;;9.17;5.03;;;;;;;22.60;57.58;97820.00;8352285;28;20239;-66
2021/07/27 06:41:55;;;;;;;9.50;5.67;;;;;;;22.73;56.99;97835.50;8355990;28;20503;-66
2021/07/27 06:45:58;;;;;;;9.13;4.93;;;;;;;22.80;56.80;97828.63;8355706;28;20231;-66
2021/07/27 06:50:02;;;;;;;9.10;5.80;;;;;;;23.03;56.11;97833.53;8355604;28;20210;-66
2021/07/27 06:54:06;;;;;;;6.47;5.10;;;;;;;23.14;55.50;97829.84;8355382;28;20207;-66
2021/07/27 06:58:08;;;;;;;5.93;4.07;;;;;;;23.54;55.44;97824.06;8355328;28;20212;-66
2021/07/27 07:02:11;;;;;;;9.50;5.00;;;;;;;23.53;54.64;97833.00;8355305;28;20208;-66
2021/07/27 07:06:16;;;;;;;11.07;5.13;;;;;;;23.36;54.47;97839.94;8355247;28;20596;-66
2021/07/27 07:10:19;;;;;;;8.27;4.73;;;;;;;23.47;54.15;97838.88;8354936;28;20220;-66
2021/07/27 07:14:21;;;;;;;7.17;4.30;;;;;;;23.83;54.00;97838.84;8355070;28;20201;-67
2021/07/27 07:18:25;;;;;;;7.83;5.00;;;;;;;24.15;53.48;97843.50;8354959;28;20215;-66
2021/07/27 07:22:30;;;;;;;6.93;5.70;;;;;;;23.73;53.63;97846.00;8354713;28;20202;-66
2021/07/27 07:26:32;;;;;;;8.03;5.10;;;;;;;23.99;53.13;97846.06;8354675;28;20386;-66
2021/07/27 07:30:35;;;;;;;8.03;4.43;;;;;;;24.58;51.89;97848.88;8358556;28;20200;-66
2021/07/27 07:34:38;;;;;;;7.00;4.40;;;;;;;24.56;51.94;97851.69;8387350;28;20258;-66
2021/07/27 07:38:43;;;;;;;7.10;4.33;;;;;;;25.08;50.64;97848.00;8386725;28;20211;-66
2021/07/27 07:42:46;;;;;;;5.47;4.37;;;;;;;25.24;49.57;97852.53;8386415;28;20365;-66
2021/07/27 07:46:49;;;;;;;5.77;4.13;;;;;;;25.66;48.79;97850.72;8386070;28;20225;-66
2021/07/27 07:50:51;;;;;;;6.30;4.57;;;;;;;25.63;48.28;97857.19;8385269;28;20193;-66
2021/07/27 07:54:55;;;;;;;7.87;4.40;;;;;;;25.74;48.92;97853.34;8386879;28;20207;-66
2021/07/27 07:58:58;;;;;;;5.50;4.53;;;;;;;25.41;48.58;97850.72;8386190;28;20206;-68
2021/07/27 08:03:02;;;;;;;7.70;4.40;;;;;;;25.43;48.68;97855.84;8386622;28;20201;-69
2021/07/27 08:07:06;;;;;;;7.67;4.37;;;;;;;25.24;48.87;97847.22;8385615;28;20334;-71
2021/07/27 08:11:10;;;;;;;5.50;4.17;;;;;;;24.72;49.81;97853.53;8385968;28;20376;-70
2021/07/27 08:15:13;;;;;;;4.77;3.80;;;;;;;25.41;47.98;97855.19;8386182;28;20489;-70
2021/07/27 08:19:16;;;;;;;6.47;3.80;;;;;;;25.25;48.48;97851.53;8386071;28;20204;-69
2021/07/27 08:23:19;;;;;;;5.50;4.00;;;;;;;24.62;49.85;97857.28;8386026;28;20381;-69
2021/07/27 08:27:23;;;;;;;6.13;4.20;;;;;;;25.01;48.91;97859.41;8385678;28;20233;-69
2021/07/27 08:31:27;;;;;;;6.47;4.10;;;;;;;26.00;46.65;97849.72;8385661;28;20201;-69
2021/07/27 08:35:30;;;;;;;7.97;4.13;;;;;;;26.09;46.69;97843.41;8385264;28;20247;-69
2021/07/27 08:39:33;;;;;;;8.20;4.37;;;;;;;25.76;46.03;97856.69;8385317;28;20531;-78
2021/07/27 08:43:37;;;;;;;5.93;4.50;;;;;;;25.16;47.88;97861.25;8396263;22;20245;-93
2021/07/27 08:47:41;;;;;;;5.97;4.23;;;;;;;25.02;47.77;97859.25;8387077;28;20242;-90
2021/07/27 08:51:44;;;;;;;5.43;4.30;;;;;;;24.77;48.37;97853.06;8385654;28;20204;-93
2021/07/27 08:55:47;;;;;;;5.40;3.87;;;;;;;25.01;47.51;97851.47;8388101;28;20209;-93
2021/07/27 08:59:52;;;;;;;4.40;4.00;;;;;;;25.63;47.36;97859.03;8386445;28;20231;-93
2021/07/27 09:03:55;;;;;;;4.93;3.80;;;;;;;26.33;46.07;97858.41;8386356;28;20223;-92
2021/07/27 09:08:01;;;;;;;8.00;4.10;;;;;;;25.79;46.68;97851.03;8391312;28;20280;-91
2021/07/27 09:12:09;;;;;;;5.43;4.43;;;;;;;25.56;47.12;97856.19;8393962;28;20203;-91
2021/07/27 09:16:18;;;;;;;6.23;3.90;;;;;;;26.16;45.82;97852.34;8394821;28;20199;-92
2021/07/27 09:20:28;;;;;;;4.40;4.00;;;;;;;26.67;45.02;97862.63;8392417;28;20214;-93
2021/07/27 09:24:32;;;;;;;6.90;3.97;;;;;;;26.89;43.44;97864.53;8389204;28;20209;-94
2021/07/27 09:28:37;;;;;;;5.17;4.00;;;;;;;26.64;44.48;97863.81;8376418;28;20219;-92
2021/07/27 09:32:47;;;;;;;4.20;3.80;;;;;;;26.83;44.20;97851.13;8360178;28;20215;-92
2021/07/27 09:37:00;;;;;;;6.83;4.40;;;;;;;27.40;42.81;97842.81;8361142;28;20210;-94
2021/07/27 09:41:06;;;;;;;6.87;4.50;;;;;;;26.94;43.82;97856.06;8364162;28;20234;-94
2021/07/27 09:45:26;;;;;;;6.50;3.93;;;;;;;26.44;43.47;97852.75;8360098;28;20302;-91
2021/07/27 09:49:31;;;;;;;5.97;3.50;;;;;;;26.38;42.88;97853.44;8359009;28;20228;-92
2021/07/27 09:53:35;;;;;;;5.30;3.90;;;;;;;26.60;42.96;97857.22;8357968;28;20210;-92
2021/07/27 09:57:38;;;;;;;4.50;4.07;;;;;;;26.26;44.25;97846.84;8358585;28;20486;-90
2021/07/27 10:01:43;;;;;;;7.73;4.37;;;;;;;26.04;44.48;97859.00;8390305;28;20198;-89
2021/07/27 10:05:53;;;;;;;6.37;4.90;;;;;;;25.92;45.43;97839.97;8395888;28;20234;-91
2021/07/27 10:10:05;;;;;;;8.57;4.30;;;;;;;26.09;45.52;97846.88;8396441;28;20230;-91
2021/07/27 10:14:10;;;;;;;5.17;3.90;;;;;;;26.23;45.70;97833.91;8393763;28;20263;-94
2021/07/27 10:18:14;;;;;;;5.97;4.20;;;;;;;26.61;43.65;97842.91;8393471;28;20223;-91
2021/07/27 10:22:19;;;;;;;6.47;4.00;;;;;;;27.01;44.42;97840.22;8393407;28;20213;-91
2021/07/27 10:26:27;;;;;;;6.67;3.77;;;;;;;27.07;43.36;97843.00;8393611;28;20214;-91
2021/07/27 10:30:31;;;;;;;4.93;4.37;;;;;;;26.86;42.90;97838.28;8393547;28;20527;-90
2021/07/27 10:34:35;;;;;;;6.43;4.10;;;;;;;26.90;43.09;97841.44;8393966;28;20199;-90
2021/07/27 10:38:41;;;;;;;5.13;4.20;;;;;;;26.97;42.69;97850.38;8393321;28;20207;-90
2021/07/27 10:42:45;;;;;;;5.90;4.10;;;;;;;26.69;42.85;97852.66;8392712;28;20238;-90
2021/07/27 10:46:50;;;;;;;4.57;3.70;;;;;;;26.57;43.65;97854.03;8393347;28;20408;-91
2021/07/27 10:50:56;;;;;;;5.23;3.97;;;;;;;26.16;42.44;97848.84;8392754;28;20225;-94
2021/07/27 10:55:04;;;;;;;6.40;3.80;;;;;;;26.24;42.80;97849.66;8393646;28;20204;-93
2021/07/27 10:59:07;;;;;;;6.17;4.17;;;;;;;26.98;41.99;97851.19;8393776;28;20205;-90
2021/07/27 11:03:10;;;;;;;4.13;3.70;;;;;;;27.34;40.42;97837.34;8388979;28;20203;-90
2021/07/27 11:07:15;;;;;;;5.57;4.53;;;;;;;27.38;41.95;97836.00;8385520;28;20226;-91
2021/07/27 11:11:19;;;;;;;6.20;3.80;;;;;;;27.09;42.04;97838.34;8385420;28;20203;-88
2021/07/27 11:15:24;;;;;;;5.57;3.60;;;;;;;27.09;40.93;97829.53;8382864;28;20559;-93
2021/07/27 11:19:28;;;;;;;4.73;3.37;;;;;;;27.48;40.92;97825.97;8382711;28;20204;-90
2021/07/27 11:23:37;;;;;;;4.00;3.70;;;;;;;28.13;38.31;97821.88;8363692;28;20216;-90
2021/07/27 11:27:41;;;;;;;7.90;3.67;;;;;;;28.42;37.30;97812.22;8372008;28;20245;-90
2021/07/27 11:31:48;;;;;;;4.27;3.60;;;;;;;29.24;36.95;97795.97;8380198;28;20210;-90
2021/07/27 11:35:53;;;;;;;3.93;3.40;;;;;;;29.54;36.33;97808.31;8373163;28;20203;-90
2021/07/27 11:39:56;;;;;;;6.77;3.80;;;;;;;28.74;38.35;97805.66;8375568;28;20398;-91
2021/07/27 11:44:00;;;;;;;6.17;3.80;;;;;;;27.84;37.73;97799.53;8375649;28;20205;-89
2021/07/27 11:48:03;;;;;;;5.60;4.00;;;;;;;27.92;37.45;97797.81;8377980;28;20231;-93
2021/07/27 11:52:07;;;;;;;3.83;3.50;;;;;;;28.79;36.34;97799.78;8383251;28;20198;-91
2021/07/27 11:56:12;;;;;;;4.50;3.63;;;;;;;29.74;35.19;97797.78;8380329;28;20302;-91
2021/07/27 12:00:19;;;;;;;3.60;3.30;;;;;;;29.39;36.20;97782.53;8376614;28;20195;-94
2021/07/27 12:04:22;;;;;;;5.13;4.20;;;;;;;29.08;35.41;97790.84;8380670;28;20219;-91
2021/07/27 12:08:26;;;;;;;6.33;3.30;;;;;;;28.57;35.17;97793.56;8371748;28;20227;-93
2021/07/27 12:12:29;;;;;;;6.87;3.63;;;;;;;28.01;36.28;97791.41;8380795;28;20364;-89
2021/07/27 12:16:34;;;;;;;3.93;3.53;;;;;;;28.18;37.52;97784.03;8383526;28;20202;-92
2021/07/27 12:20:37;;;;;;;5.43;4.00;;;;;;;28.00;35.81;97766.59;8396322;28;20206;-91
2021/07/27 12:24:41;;;;;;;4.10;3.70;;;;;;;29.28;33.49;97766.22;8397486;28;20206;-92
2021/07/27 12:28:44;;;;;;;4.90;3.50;;;;;;;29.38;35.34;97769.41;8396428;28;20230;-91
2021/07/27 12:33:30;;;;;;;4.77;3.50;;;;;;;29.72;34.35;97759.78;8397885;28;20209;-91
2021/07/27 12:37:36;;;;;;;5.37;3.57;;;;;;;30.32;34.65;97758.31;8377557;28;20207;-90
2021/07/27 12:41:41;;;;;;;3.70;3.40;;;;;;;29.42;35.00;97750.16;8396897;28;20246;-90
2021/07/27 12:45:44;;;;;;;14.53;4.10;;;;;;;28.82;35.84;97754.91;8397329;28;20206;-90
2021/07/27 12:49:50;;;;;;;5.23;3.37;;;;;;;28.57;36.20;97754.44;8374338;28;20331;-92
2021/07/27 12:54:00;;;;;;;5.87;3.93;;;;;;;28.25;36.83;97753.84;8362152;28;20250;-90
2021/07/27 12:58:03;;;;;;;4.37;3.40;;;;;;;28.52;36.56;97743.53;8365640;28;20259;-91
2021/07/27 13:02:09;;;;;;;4.60;3.70;;;;;;;28.52;36.14;97748.88;8396283;28;20228;-91
2021/07/27 13:06:13;;;;;;;5.40;3.43;;;;;;;28.43;37.14;97739.31;8386652;28;20220;-90
2021/07/27 13:10:19;;;;;;;5.40;4.00;;;;;;;28.30;36.16;97733.81;8355329;28;20454;-91
2021/07/27 13:14:37;;;;;;;6.37;3.70;;;;;;;27.86;35.81;97723.00;8359592;28;20498;-93
2021/07/27 13:18:42;;;;;;;4.40;3.17;;;;;;;27.88;37.66;97729.00;8357734;28;20388;-92
2021/07/27 13:22:47;;;;;;;5.93;3.80;;;;;;;27.83;37.66;97728.69;8358556;28;20206;-91
2021/07/27 13:26:52;;;;;;;4.73;3.80;;;;;;;27.90;37.76;97720.00;8358413;28;20266;-91
2021/07/27 13:31:03;;;;;;;6.30;3.70;;;;;;;27.92;38.18;97702.03;8357279;28;20229;-91
2021/07/27 13:35:07;;;;;;;5.40;4.07;;;;;;;28.14;37.72;97703.75;8357964;28;20219;-90
2021/07/27 13:39:10;;;;;;;4.27;3.87;;;;;;;27.87;36.58;97702.53;8358611;28;20198;-91
2021/07/27 13:43:14;;;;;;;5.43;3.80;;;;;;;27.96;37.88;97687.34;8358057;28;20235;-90
2021/07/27 13:47:18;;;;;;;5.03;3.80;;;;;;;27.86;38.01;97680.44;8358645;28;20216;-90
2021/07/27 13:51:21;;;;;;;5.17;3.97;;;;;;;27.71;38.00;97682.28;8358220;28;20225;-89
2021/07/27 13:55:24;;;;;;;8.50;4.30;;;;;;;27.67;38.53;97681.00;8346496;28;20195;-89
2021/07/27 13:59:28;;;;;;;4.40;3.50;;;;;;;27.46;38.06;97684.38;8380995;28;20199;-89
2021/07/27 14:03:33;;;;;;;4.47;3.53;;;;;;;27.35;38.07;97676.84;8362599;28;20202;-88
2021/07/27 14:07:36;;;;;;;6.93;3.83;;;;;;;27.55;38.79;97685.97;8363580;28;20210;-90
2021/07/27 14:11:40;;;;;;;4.93;3.90;;;;;;;27.46;37.94;97679.88;8372591;28;20537;-90
2021/07/27 14:15:44;;;;;;;6.07;3.80;;;;;;;27.46;38.19;97674.56;8379165;28;20196;-92
2021/07/27 14:19:47;;;;;;;5.40;3.70;;;;;;;27.53;38.56;97672.03;8367822;28;20202;-91
2021/07/27 14:23:50;;;;;;;7.73;3.67;;;;;;;27.57;38.10;97667.13;8358144;28;20204;-89
2021/07/27 14:27:55;;;;;;;7.93;3.93;;;;;;;27.38;37.85;97661.38;8375652;28;20259;-92
2021/07/27 14:32:00;;;;;;;7.37;3.77;;;;;;;27.54;37.99;97663.00;8359631;28;20236;-89
2021/07/27 14:36:03;;;;;;;4.77;3.53;;;;;;;27.78;37.62;97648.63;8360240;28;20212;-93
2021/07/27 14:40:07;;;;;;;4.23;3.30;;;;;;;28.10;36.97;97653.72;8381854;28;20197;-88
2021/07/27 14:44:11;;;;;;;4.00;3.60;;;;;;;27.96;37.52;97645.56;8390632;28;20215;-89
2021/07/27 14:48:15;;;;;;;5.60;3.40;;;;;;;27.82;37.65;97646.41;8390219;28;20208;-89
2021/07/27 14:52:18;;;;;;;4.70;3.50;;;;;;;27.68;38.40;97648.91;8372248;28;20233;-88
2021/07/27 14:56:21;;;;;;;7.93;3.60;;;;;;;27.65;38.92;97637.81;8388536;28;20267;-87
2021/07/27 15:00:24;;;;;;;6.40;3.97;;;;;;;27.53;39.51;97636.59;8395205;28;20200;-90
2021/07/27 15:04:29;;;;;;;5.07;3.87;;;;;;;27.74;38.09;97626.06;8396022;28;20235;-89
2021/07/27 15:08:33;;;;;;;5.33;3.87;;;;;;;28.02;35.98;97622.72;8398835;28;20208;-93
2021/07/27 15:12:36;;;;;;;6.77;3.70;;;;;;;27.79;36.08;97618.31;8395983;28;20217;-90
2021/07/27 15:16:39;;;;;;;5.20;3.90;;;;;;;27.42;36.40;97621.94;8395593;28;20202;-93
2021/07/27 15:20:43;;;;;;;4.10;3.50;;;;;;;27.42;36.97;97614.78;8378970;28;20206;-91
2021/07/27 15:24:47;;;;;;;5.37;3.57;;;;;;;27.37;37.43;97619.00;8396048;28;20214;-88
2021/07/27 15:28:50;;;;;;;5.10;3.70;;;;;;;27.45;36.72;97621.56;8394215;28;20209;-88
2021/07/27 15:32:54;;;;;;;4.13;3.20;;;;;;;27.56;36.81;97625.59;8392268;28;20197;-88
2021/07/27 15:37:08;;;;;;;4.93;3.23;;;;;;;27.55;36.41;97619.47;8391103;28;20200;-89
2021/07/27 15:41:13;;;;;;;3.93;3.33;;;;;;;27.43;35.96;97605.78;8392826;28;20237;-89
2021/07/27 15:45:16;;;;;;;5.87;3.83;;;;;;;27.26;36.10;97605.19;8391830;28;20223;-89
2021/07/27 15:49:19;;;;;;;3.60;3.23;;;;;;;27.44;36.76;97606.63;8391113;28;20217;-89
2021/07/27 15:53:23;;;;;;;5.00;3.50;;;;;;;27.38;36.30;97616.19;8393531;28;20228;-89
2021/07/27 15:57:26;;;;;;;7.70;3.63;;;;;;;27.37;36.62;97611.84;8396614;28;20266;-89
2021/07/27 16:01:30;;;;;;;6.07;3.60;;;;;;;27.22;37.05;97614.47;8394616;28;20197;-88
2021/07/27 16:05:34;;;;;;;5.00;3.70;;;;;;;27.32;37.57;97611.56;8390903;28;20222;-89
2021/07/27 16:09:38;;;;;;;4.53;3.90;;;;;;;27.29;36.52;97599.47;8394236;28;20225;-88
2021/07/27 16:13:41;;;;;;;4.83;4.07;;;;;;;27.30;37.14;97605.59;8398297;28;20215;-88
2021/07/27 16:17:44;;;;;;;5.50;3.90;;;;;;;27.27;37.85;97595.38;8402510;28;20203;-89
2021/07/27 16:21:47;;;;;;;3.87;3.47;;;;;;;27.34;37.64;97590.97;8385116;28;20206;-89
2021/07/27 16:25:52;;;;;;;6.47;3.90;;;;;;;27.21;37.45;97577.47;8369660;28;20261;-90
2021/07/27 16:29:57;;;;;;;5.83;3.70;;;;;;;26.99;37.77;97572.03;8381640;28;20220;-89
2021/07/27 16:34:00;;;;;;;5.67;4.00;;;;;;;27.22;37.73;97587.88;8387243;28;20212;-89
2021/07/27 16:38:04;;;;;;;7.00;3.97;;;;;;;27.42;37.33;97574.91;8387723;28;20213;-91
2021/07/27 16:42:09;;;;;;;4.27;3.30;;;;;;;27.55;36.87;97574.25;8387019;28;20284;-89
2021/07/27 16:46:12;;;;;;;5.47;3.80;;;;;;;27.45;37.87;97568.38;8387496;28;20205;-90
2021/07/27 16:50:18;;;;;;;4.23;3.33;;;;;;;27.36;37.84;97575.66;8387530;28;20231;-91
2021/07/27 16:54:21;;;;;;;4.70;3.73;;;;;;;27.22;38.43;97579.91;8354895;28;20391;-90
2021/07/27 16:58:26;;;;;;;70.20;17.50;;;;;;;27.14;39.67;97577.34;8373396;28;20302;-90
2021/07/27 17:02:29;;;;;;;55.67;15.47;;;;;;;26.90;39.17;97567.78;8387020;28;20207;-94
2021/07/27 17:06:33;;;;;;;26.03;10.00;;;;;;;27.03;39.40;97580.47;8387062;28;20225;-91
2021/07/27 17:10:36;;;;;;;17.93;7.23;;;;;;;26.81;39.68;97576.88;8383345;28;20289;-94
2021/07/27 17:14:40;;;;;;;14.10;5.93;;;;;;;26.82;40.23;97571.34;8385317;28;20201;-88
2021/07/27 17:18:53;;;;;;;16.23;7.20;;;;;;;26.85;40.28;97578.97;8384837;28;20195;-89
2021/07/27 17:22:56;;;;;;;13.13;5.53;;;;;;;26.82;40.78;97574.00;8384504;28;20495;-87
2021/07/27 17:26:59;;;;;;;11.97;5.10;;;;;;;26.76;40.53;97566.78;8384716;28;20203;-86
2021/07/27 17:31:04;;;;;;;11.10;4.27;;;;;;;26.74;40.78;97563.47;8383531;28;20232;-85
2021/07/27 17:35:08;;;;;;;10.80;5.37;;;;;;;26.70;41.23;97556.88;8384720;28;20467;-89
2021/07/27 17:39:11;;;;;;;25.63;5.97;;;;;;;26.66;42.21;97548.44;8383241;28;20393;-87
2021/07/27 17:43:14;;;;;;;11.67;5.03;;;;;;;26.66;41.77;97559.06;8384925;28;20232;-88
2021/07/27 17:47:20;;;;;;;10.27;4.83;;;;;;;26.59;42.52;97547.50;8384667;28;20195;-89
2021/07/27 17:51:23;;;;;;;7.23;4.40;;;;;;;26.53;41.94;97553.50;8389275;28;20235;-96
2021/07/27 17:55:25;;;;;;;5.77;4.00;;;;;;;26.48;42.67;97543.44;8399877;28;20398;-91
2021/07/27 17:59:28;;;;;;;9.30;4.30;;;;;;;26.51;42.66;97547.56;8379550;28;20382;-91
2021/07/27 18:03:33;;;;;;;5.93;3.70;;;;;;;26.46;42.78;97545.44;8387362;28;20395;-91
2021/07/27 18:07:37;;;;;;;4.40;3.90;;;;;;;26.38;41.84;97539.38;8390256;28;20587;-91
2021/07/27 18:11:40;;;;;;;6.83;4.20;;;;;;;26.36;42.16;97549.34;8385562;28;20232;-93
2021/07/27 18:15:43;;;;;;;5.63;3.80;;;;;;;26.29;43.13;97542.09;8384237;28;20199;-92
2021/07/27 18:19:48;;;;;;;7.03;4.03;;;;;;;26.25;43.56;97546.09;8384295;28;20214;-93
2021/07/27 18:23:51;;;;;;;5.73;3.73;;;;;;;26.21;44.28;97539.50;8384278;28;20354;-92
2021/07/27 18:27:54;;;;;;;8.83;4.23;;;;;;;26.19;44.88;97546.81;8384310;28;20407;-91
2021/07/27 18:31:57;;;;;;;8.33;4.63;;;;;;;26.14;46.04;97543.84;8384153;28;20534;-92
2021/07/27 18:36:02;;;;;;;6.13;4.43;;;;;;;26.08;47.37;97540.13;8390778;28;20206;-93
2021/07/27 18:40:09;;;;;;;5.93;3.97;;;;;;;26.04;48.18;97541.44;8391637;28;20209;-93
2021/07/27 18:44:13;;;;;;;6.13;4.10;;;;;;;25.88;48.00;97544.19;8393496;28;20514;-92
2021/07/27 18:48:17;;;;;;;5.80;4.27;;;;;;;25.82;48.44;97547.56;8391613;28;20202;-92
2021/07/27 18:52:23;;;;;;;7.63;4.73;;;;;;;25.67;48.96;97550.13;8392960;28;20237;-94
2021/07/27 18:56:27;;;;;;;6.43;5.47;;;;;;;25.64;49.53;97543.31;8394605;28;20205;-93
2021/07/27 19:00:30;;;;;;;5.70;4.47;;;;;;;25.53;50.69;97535.75;8393221;28;20211;-94
2021/07/27 19:04:33;;;;;;;9.27;4.93;;;;;;;25.39;49.99;97555.84;8380784;28;20219;-93
2021/07/27 19:08:37;;;;;;;5.03;4.53;;;;;;;25.47;49.49;97560.31;8372853;28;21308;-93
2021/07/27 19:12:41;;;;;;;8.87;5.30;;;;;;;25.43;49.47;97578.38;8389239;28;20218;-96
2021/07/27 19:16:44;;;;;;;6.20;4.40;;;;;;;25.44;50.14;97579.22;8391863;28;20208;-95
2021/07/27 19:20:49;;;;;;;8.80;4.73;;;;;;;25.29;50.33;97565.84;8382273;28;20498;-96
2021/07/27 19:24:54;;;;;;;6.73;4.53;;;;;;;25.36;51.04;97577.44;8386483;28;20197;-96